Time;durP1;ratioP1;P1;durP2;ratioP2;P2;SDS_P1;SDS_P2;PMS_P1;PMS_P2;Temp;Humidity;BMP_temperature;BMP_pressure;BME280_temperature;BME280_humidity;BME280_pressure;Samples;Min_cycle;Max_cycle;Signal;HPM_P1;HPM_P2
2022/08/29 00:00:17;;;;;;;29.40;24.10;;;;;;;18.69;94.43;98335.11;105972;1274;22548;-69
2022/08/29 00:03:00;;;;;;;31.50;23.40;;;;;;;18.69;94.41;98338.41;105957;1274;25452;-69
2022/08/29 00:05:31;;;;;;;29.10;21.70;;;;;;;18.69;94.42;98334.77;105958;1274;22554;-69
2022/08/29 00:08:01;;;;;;;29.50;22.30;;;;;;;18.67;94.46;98335.40;105989;1274;25130;-69
2022/08/29 00:10:30;;;;;;;31.30;22.90;;;;;;;18.67;94.46;98338.62;106068;1274;22557;-69
2022/08/29 00:12:57;;;;;;;31.10;22.10;;;;;;;18.65;94.44;98341.90;106077;1274;24244;-69
2022/08/29 00:15:25;;;;;;;20.70;17.20;;;;;;;18.64;94.38;98344.11;106009;1274;24256;-70
2022/08/29 00:17:52;;;;;;;20.60;16.40;;;;;;;18.61;94.14;98350.63;106027;1274;22557;-70
2022/08/29 00:20:24;;;;;;;21.00;15.60;;;;;;;18.57;94.28;98344.89;105947;1274;23862;-69
2022/08/29 00:22:51;;;;;;;22.80;17.00;;;;;;;18.55;94.22;98344.38;106023;1274;22545;-69
2022/08/29 00:25:17;;;;;;;20.80;15.60;;;;;;;18.53;94.26;98344.80;105983;1274;22603;-69
2022/08/29 00:27:44;;;;;;;19.50;16.00;;;;;;;18.52;94.25;98345.45;105952;1274;22739;-69
2022/08/29 00:30:12;;;;;;;21.50;16.20;;;;;;;18.53;94.44;98347.72;105982;1274;22699;-70
2022/08/29 00:32:39;;;;;;;22.70;16.60;;;;;;;18.54;94.42;98345.27;105998;1274;22547;-69
2022/08/29 00:35:16;;;;;;;23.50;17.50;;;;;;;18.56;94.40;98344.98;106004;1274;25432;-69
2022/08/29 00:37:43;;;;;;;28.40;19.30;;;;;;;18.57;94.46;98345.71;106003;1274;23179;-69
2022/08/29 00:40:14;;;;;;;27.50;19.80;;;;;;;18.57;94.48;98339.86;105953;1274;22534;-69
2022/08/29 00:42:42;;;;;;;28.60;18.50;;;;;;;18.57;94.47;98340.65;106025;1274;23480;-69
2022/08/29 00:45:11;;;;;;;28.10;19.40;;;;;;;18.55;94.43;98337.53;105974;1274;22705;-70
2022/08/29 00:47:42;;;;;;;27.90;17.70;;;;;;;18.53;94.55;98340.98;106059;1274;22617;-69
2022/08/29 00:50:18;;;;;;;25.30;17.50;;;;;;;18.52;94.54;98337.74;105845;1274;22706;-69
2022/08/29 00:52:47;;;;;;;22.20;16.60;;;;;;;18.50;94.63;98337.95;105924;1274;23177;-72
2022/08/29 00:55:18;;;;;;;;;;;;;;;18.50;94.73;98338.23;105908;1274;22528;-70
2022/08/29 00:57:50;;;;;;;21.30;15.00;;;;;;;18.46;94.72;98336.86;105895;1274;22610;-70
2022/08/29 01:00:20;;;;;;;22.60;16.10;;;;;;;18.44;94.93;98336.73;105870;1274;24081;-70
2022/08/29 01:02:47;;;;;;;20.80;15.00;;;;;;;18.43;95.08;98339.77;105878;1274;24265;-70
2022/08/29 01:05:16;;;;;;;22.00;14.90;;;;;;;18.43;95.10;98341.96;105867;1274;22699;-70
2022/08/29 01:07:43;;;;;;;18.50;14.60;;;;;;;18.43;95.23;98342.30;105881;1274;22529;-70
2022/08/29 01:12:14;;;;;;;17.20;13.00;;;;;;;18.42;95.11;98345.08;105865;1274;22724;-70
2022/08/29 01:12:59;;;;;;;20.90;14.70;;;;;;;18.40;95.15;98344.77;105911;1274;25408;-69
2022/08/29 01:15:29;;;;;;;20.80;14.50;;;;;;;18.39;95.20;98344.95;105941;1274;22539;-70
2022/08/29 01:17:58;;;;;;;21.40;14.90;;;;;;;18.39;95.28;98351.80;105971;1273;24372;-70
2022/08/29 01:20:40;;;;;;;20.00;14.30;;;;;;;18.38;95.33;98348.88;105914;1274;25326;-70
2022/08/29 01:23:16;;;;;;;23.30;15.10;;;;;;;18.39;95.31;98348.91;105861;1274;22708;-70
2022/08/29 01:25:47;;;;;;;21.00;14.40;;;;;;;18.40;95.30;98353.54;105862;1274;23210;-69
2022/08/29 01:28:25;;;;;;;20.10;14.60;;;;;;;18.39;95.45;98348.52;105921;1274;24203;-69
2022/08/29 01:31:10;;;;;;;20.80;14.40;;;;;;;18.39;95.37;98345.77;105852;1274;24412;-70
2022/08/29 01:33:44;;;;;;;17.30;13.50;;;;;;;18.38;95.39;98342.16;105888;1274;22566;-70
2022/08/29 01:36:21;;;;;;;19.00;13.80;;;;;;;18.37;95.44;98339.48;105895;1274;25394;-70
2022/08/29 01:38:49;;;;;;;19.70;11.80;;;;;;;18.37;95.32;98342.89;105896;1274;25404;-70
2022/08/29 01:41:18;;;;;;;17.60;13.00;;;;;;;18.38;95.44;98336.70;105859;1274;25356;-70
2022/08/29 01:43:50;;;;;;;15.30;12.10;;;;;;;18.38;95.33;98343.98;105941;1274;25466;-70
2022/08/29 01:46:21;;;;;;;17.60;11.80;;;;;;;18.37;95.30;98345.91;105881;1274;24280;-70
2022/08/29 01:48:48;;;;;;;17.40;11.60;;;;;;;18.38;95.32;98349.94;105903;1274;22566;-70
2022/08/29 01:51:16;;;;;;;14.10;11.70;;;;;;;18.38;95.30;98346.17;105815;1274;25603;-70
2022/08/29 01:53:43;;;;;;;17.20;12.60;;;;;;;18.39;95.17;98346.32;105949;1274;24220;-70
2022/08/29 01:56:22;;;;;;;13.50;10.90;;;;;;;18.39;95.12;98349.14;105896;1274;24360;-70
2022/08/29 01:58:52;;;;;;;17.40;12.30;;;;;;;18.37;95.05;98353.14;105929;1274;22552;-69
2022/08/29 02:01:23;;;;;;;13.00;10.30;;;;;;;18.37;95.15;98354.63;105881;1274;25557;-71
2022/08/29 02:03:49;;;;;;;16.80;11.00;;;;;;;18.37;95.12;98355.85;105886;1274;25645;-71
2022/08/29 02:06:16;;;;;;;13.80;11.50;;;;;;;18.36;95.24;98354.86;105859;1274;22547;-71
2022/08/29 02:08:44;;;;;;;13.10;10.80;;;;;;;18.36;95.12;98358.08;105864;1274;24299;-72
2022/08/29 02:11:12;;;;;;;15.80;10.70;;;;;;;18.36;95.02;98361.20;105862;1274;25596;-71
2022/08/29 02:13:45;;;;;;;12.00;9.90;;;;;;;18.37;95.05;98362.79;105870;1274;23252;-71
2022/08/29 02:16:13;;;;;;;11.60;10.40;;;;;;;18.37;94.86;98363.57;105890;1274;22800;-71
2022/08/29 02:18:41;;;;;;;14.40;11.40;;;;;;;18.37;94.89;98363.19;105871;1274;22531;-71
2022/08/29 02:21:12;;;;;;;15.70;11.10;;;;;;;18.36;94.88;98360.65;105856;1274;24425;-72
2022/08/29 02:23:40;;;;;;;12.10;8.90;;;;;;;18.36;94.78;98358.83;105872;1274;22529;-72
2022/08/29 02:26:08;;;;;;;12.70;10.40;;;;;;;18.35;94.58;98359.58;105860;1274;25454;-71
2022/08/29 02:28:37;;;;;;;;;;;;;;;18.31;94.54;98364.25;105958;1274;22526;-72
2022/08/29 02:31:06;;;;;;;14.20;11.70;;;;;;;18.28;94.53;98364.08;105912;1274;22909;-72
2022/08/29 02:33:34;;;;;;;12.50;11.00;;;;;;;18.25;94.31;98362.98;105900;1274;22531;-71
2022/08/29 02:36:04;;;;;;;14.60;12.00;;;;;;;18.22;94.22;98363.61;105913;1274;22531;-71
2022/08/29 02:38:31;;;;;;;18.20;11.80;;;;;;;18.20;94.26;98366.56;105919;1274;25415;-71
2022/08/29 02:40:58;;;;;;;16.50;12.10;;;;;;;18.18;94.26;98366.38;105887;1274;24340;-71
2022/08/29 02:43:26;;;;;;;14.90;11.70;;;;;;;18.16;94.25;98362.83;105877;1274;30948;-71
2022/08/29 02:45:54;;;;;;;14.20;11.40;;;;;;;18.15;94.41;98364.81;105874;1274;22767;-71
2022/08/29 02:48:21;;;;;;;13.00;11.40;;;;;;;18.15;94.44;98367.95;105869;1274;24309;-71
2022/08/29 02:50:52;;;;;;;17.00;12.00;;;;;;;18.13;94.21;98368.48;105921;1274;22547;-71
2022/08/29 02:53:23;;;;;;;15.30;12.00;;;;;;;18.12;94.29;98368.23;105886;1274;25308;-71
2022/08/29 02:55:53;;;;;;;15.50;11.20;;;;;;;18.10;94.39;98370.57;105958;1274;25313;-71
2022/08/29 02:58:21;;;;;;;14.10;10.70;;;;;;;18.09;94.42;98373.01;105891;1272;22540;-71
2022/08/29 03:00:49;;;;;;;16.80;11.30;;;;;;;18.08;94.38;98377.59;105869;1274;23315;-71
2022/08/29 03:03:16;;;;;;;16.30;11.90;;;;;;;18.07;94.36;98374.14;105842;1274;23000;-73
2022/08/29 03:05:43;;;;;;;14.60;11.70;;;;;;;18.07;94.54;98375.30;105874;1274;25447;-71
2022/08/29 03:08:15;;;;;;;14.60;11.70;;;;;;;18.05;94.58;98372.73;105874;1274;22565;-71
2022/08/29 03:10:42;;;;;;;14.40;11.50;;;;;;;18.06;94.48;98375.81;105877;1274;22544;-71
2022/08/29 03:13:12;;;;;;;14.30;11.70;;;;;;;18.05;94.36;98378.34;105890;1274;25414;-71
2022/08/29 03:15:39;;;;;;;15.90;12.30;;;;;;;18.03;94.34;98379.52;105893;1274;25527;-71
2022/08/29 03:18:06;;;;;;;16.80;12.50;;;;;;;18.04;94.39;98382.22;105881;1274;22648;-71
2022/08/29 03:20:36;;;;;;;16.30;12.60;;;;;;;18.04;94.47;98381.77;105892;1274;25508;-71
2022/08/29 03:23:05;;;;;;;17.30;13.10;;;;;;;18.04;94.35;98386.08;105833;1274;25646;-71
2022/08/29 03:25:31;;;;;;;;;;;;;;;18.04;94.34;98384.43;105909;1274;22552;-71
2022/08/29 03:27:58;;;;;;;17.40;13.50;;;;;;;18.03;94.41;98385.48;105819;1274;22740;-71
2022/08/29 03:30:26;;;;;;;24.90;15.30;;;;;;;18.03;94.55;98388.50;105827;1274;24113;-71
2022/08/29 03:32:53;;;;;;;22.60;17.20;;;;;;;18.04;94.62;98391.20;105851;1274;25569;-71
2022/08/29 03:35:21;;;;;;;26.80;19.70;;;;;;;18.05;94.85;98390.27;105874;1274;22553;-71
2022/08/29 03:37:49;;;;;;;31.70;23.40;;;;;;;18.06;95.02;98390.85;105891;1274;25564;-71
2022/08/29 03:40:17;;;;;;;30.70;21.30;;;;;;;18.06;95.12;98389.25;105908;1274;22532;-71
2022/08/29 03:42:45;;;;;;;28.70;22.10;;;;;;;18.06;95.33;98392.89;105939;1274;23922;-71
2022/08/29 03:45:15;;;;;;;31.40;21.20;;;;;;;18.05;95.33;98393.16;105853;1274;25307;-71
2022/08/29 03:47:44;;;;;;;29.00;20.10;;;;;;;18.03;95.42;98397.00;105918;1274;22779;-71
2022/08/29 03:50:13;;;;;;;29.40;20.00;;;;;;;18.01;95.42;98395.31;105788;1277;25312;-71
2022/08/29 03:52:42;;;;;;;;;;;;;;;18.00;95.56;98403.48;105942;1274;22604;-71
2022/08/29 03:55:12;;;;;;;26.60;20.40;;;;;;;17.97;95.64;98406.05;105882;1274;23958;-71
2022/08/29 03:57:40;;;;;;;26.80;20.10;;;;;;;17.98;95.81;98408.69;105934;1274;23062;-71
2022/08/29 04:03:53;;;;;;;28.00;19.20;;;;;;;17.96;95.82;98414.94;105506;1277;22796;-71
2022/08/29 04:06:21;;;;;;;27.00;18.30;;;;;;;17.94;95.85;98416.52;105640;1277;24221;-71
2022/08/29 04:08:50;;;;;;;23.30;18.00;;;;;;;17.91;95.70;98419.09;105822;1277;23091;-71
2022/08/29 04:11:18;;;;;;;23.90;19.00;;;;;;;17.88;95.71;98419.29;105745;1277;22706;-71
2022/08/29 04:13:47;;;;;;;26.00;21.00;;;;;;;17.86;95.82;98422.34;105671;1277;22688;-71
2022/08/29 04:16:18;;;;;;;29.80;20.70;;;;;;;17.86;95.96;98425.69;105707;1277;22549;-70
2022/08/29 04:18:45;;;;;;;29.50;22.10;;;;;;;17.85;96.06;98427.47;105423;1280;22605;-71
2022/08/29 04:21:12;;;;;;;28.10;20.90;;;;;;;17.85;96.09;98433.95;105636;1277;24198;-70
2022/08/29 04:23:39;;;;;;;27.90;21.10;;;;;;;17.85;96.16;98437.27;105593;1277;22793;-71
2022/08/29 04:26:18;;;;;;;29.70;20.40;;;;;;;17.83;96.19;98436.94;105615;1277;26676;-71
2022/08/29 04:28:45;;;;;;;26.60;20.40;;;;;;;17.83;96.26;98440.09;105499;1277;22551;-71
2022/08/29 04:31:19;;;;;;;28.60;18.90;;;;;;;17.83;96.07;98441.96;105523;1277;22553;-70
2022/08/29 04:33:48;;;;;;;26.70;19.80;;;;;;;17.83;96.06;98443.29;105591;1277;24287;-71
2022/08/29 04:36:16;;;;;;;27.90;21.10;;;;;;;17.84;96.03;98445.96;105637;1277;25472;-71
2022/08/29 04:38:43;;;;;;;31.50;23.10;;;;;;;17.85;95.95;98448.45;105427;1277;22536;-71
2022/08/29 04:41:14;;;;;;;32.50;23.40;;;;;;;17.84;96.05;98449.05;105668;1274;22523;-70
2022/08/29 04:43:41;;;;;;;40.30;23.30;;;;;;;17.86;96.17;98450.33;105842;1274;22560;-71
2022/08/29 04:46:08;;;;;;;35.40;24.70;;;;;;;17.87;96.36;98453.63;105833;1274;25349;-71
2022/08/29 04:48:35;;;;;;;34.00;23.90;;;;;;;17.88;96.40;98451.91;105808;1274;25474;-71
2022/08/29 04:51:02;;;;;;;34.20;24.50;;;;;;;17.90;96.31;98455.52;105819;1274;25558;-70
2022/08/29 04:53:29;;;;;;;32.90;24.00;;;;;;;17.90;96.14;98458.27;105836;1275;25557;-73
2022/08/29 04:56:08;;;;;;;36.90;25.60;;;;;;;17.91;96.25;98456.02;105805;1275;22552;-71
2022/08/29 04:58:39;;;;;;;38.30;25.40;;;;;;;17.90;96.22;98457.27;105858;1273;22780;-70
2022/08/29 05:01:07;;;;;;;34.40;24.60;;;;;;;17.89;96.36;98461.48;105873;1274;24062;-71
2022/08/29 05:03:33;;;;;;;37.20;25.40;;;;;;;17.90;96.33;98472.89;105908;1274;25547;-70
2022/08/29 05:06:07;;;;;;;35.40;24.20;;;;;;;17.89;96.16;98478.40;105809;1278;25438;-71
2022/08/29 05:08:36;;;;;;;36.30;24.70;;;;;;;17.88;96.28;98484.74;105820;1275;22697;-71
2022/08/29 05:11:05;;;;;;;33.20;22.50;;;;;;;17.88;96.11;98490.25;105887;1274;22542;-70
2022/08/29 05:13:32;;;;;;;36.70;24.30;;;;;;;17.87;96.13;98491.42;105873;1274;23982;-71
2022/08/29 05:16:04;;;;;;;33.00;23.20;;;;;;;17.86;96.14;98495.66;105868;1274;25518;-70
2022/08/29 05:18:32;;;;;;;33.90;22.20;;;;;;;17.84;96.06;98495.44;105864;1274;25263;-71
2022/08/29 05:20:58;;;;;;;27.20;18.70;;;;;;;17.82;95.99;98496.13;105870;1275;25244;-71
2022/08/29 05:23:26;;;;;;;34.30;23.40;;;;;;;17.80;95.90;98496.42;105874;1274;25436;-71
2022/08/29 05:25:58;;;;;;;33.60;22.60;;;;;;;17.79;96.03;98496.13;105838;1275;22659;-71
2022/08/29 05:28:27;;;;;;;28.50;21.40;;;;;;;17.78;96.14;98500.52;105821;1274;23966;-71
2022/08/29 05:30:54;;;;;;;25.00;16.40;;;;;;;17.77;96.17;98498.60;105769;1274;22544;-70
2022/08/29 05:33:21;;;;;;;27.30;20.70;;;;;;;17.77;96.08;98502.30;105827;1274;24479;-71
2022/08/29 05:35:48;;;;;;;30.80;20.60;;;;;;;17.77;96.27;98502.41;105827;1274;22483;-71
2022/08/29 05:38:15;;;;;;;29.10;21.50;;;;;;;17.78;96.30;98508.52;105885;1274;22789;-71
2022/08/29 05:40:42;;;;;;;33.40;23.10;;;;;;;17.77;96.37;98508.24;105794;1274;25236;-71
2022/08/29 05:43:10;;;;;;;33.30;22.50;;;;;;;17.79;96.53;98510.05;105844;1274;22538;-70
2022/08/29 05:45:39;;;;;;;32.10;23.00;;;;;;;17.80;96.62;98509.14;105853;1274;25737;-71
2022/08/29 05:48:08;;;;;;;33.20;22.30;;;;;;;17.81;96.63;98510.08;105870;1274;25248;-71
2022/08/29 05:50:42;;;;;;;34.60;22.70;;;;;;;17.83;96.67;98514.75;105892;1275;24405;-71
2022/08/29 05:53:11;;;;;;;28.20;20.30;;;;;;;17.85;96.62;98513.97;105830;1274;22563;-71
2022/08/29 05:55:40;;;;;;;33.10;22.20;;;;;;;17.84;96.38;98517.76;105916;1274;23935;-71
2022/08/29 05:58:07;;;;;;;;;;;;;;;17.84;96.35;98520.02;106133;1274;22620;-72
2022/08/29 06:00:38;;;;;;;38.40;21.70;;;;;;;17.83;96.46;98521.08;105958;1274;22560;-71
2022/08/29 06:03:05;;;;;;;37.80;21.20;;;;;;;17.81;96.41;98520.70;105963;1274;25555;-71
2022/08/29 06:05:33;;;;;;;33.30;21.20;;;;;;;17.79;96.38;98524.03;106062;1274;22819;-72
2022/08/29 06:08:00;;;;;;;31.60;22.40;;;;;;;17.78;96.41;98524.10;106120;1274;22528;-72
2022/08/29 06:10:28;;;;;;;32.40;21.00;;;;;;;17.77;96.57;98525.48;105620;1278;22646;-71
2022/08/29 06:12:55;;;;;;;33.10;21.30;;;;;;;17.78;96.50;98530.88;105799;1278;22677;-71
2022/08/29 06:15:22;;;;;;;31.60;21.20;;;;;;;17.78;96.63;98526.86;105760;1278;25290;-70
2022/08/29 06:17:49;;;;;;;28.80;20.30;;;;;;;17.77;96.46;98533.41;105874;1274;23952;-70
2022/08/29 06:20:16;;;;;;;24.50;17.40;;;;;;;17.76;96.56;98537.23;105932;1274;22534;-70
2022/08/29 06:22:43;;;;;;;19.70;15.30;;;;;;;17.75;96.56;98538.56;105937;1274;24247;-70
2022/08/29 06:25:10;;;;;;;18.80;15.20;;;;;;;17.76;96.46;98544.83;105926;1274;24235;-70
2022/08/29 06:27:39;;;;;;;19.90;16.00;;;;;;;17.77;96.39;98544.33;105831;1275;22694;-71
2022/08/29 06:30:07;;;;;;;20.70;14.20;;;;;;;17.80;96.47;98545.50;105902;1274;22567;-71
2022/08/29 06:32:34;;;;;;;22.00;15.40;;;;;;;17.85;96.42;98548.95;105904;1274;25314;-71
2022/08/29 06:35:00;;;;;;;19.90;14.20;;;;;;;17.89;96.33;98550.64;105853;1274;25419;-70
2022/08/29 06:37:27;;;;;;;16.70;13.00;;;;;;;17.93;96.16;98551.75;105898;1274;22547;-70
2022/08/29 06:39:54;;;;;;;16.80;13.10;;;;;;;18.00;96.04;98557.14;105921;1274;22559;-70
2022/08/29 06:42:23;;;;;;;18.10;12.80;;;;;;;18.09;96.08;98559.37;105958;1274;22826;-72
2022/08/29 06:44:51;;;;;;;22.10;13.00;;;;;;;18.19;95.83;98557.20;105893;1274;22862;-71
2022/08/29 06:47:18;;;;;;;16.40;12.10;;;;;;;18.31;95.59;98560.66;105853;1274;22742;-70
2022/08/29 06:49:45;;;;;;;20.30;11.40;;;;;;;18.41;95.08;98560.10;104455;1274;1905254;-70
2022/08/29 06:52:12;;;;;;;15.30;11.60;;;;;;;18.53;94.35;98564.38;105859;1274;25420;-70
2022/08/29 06:54:39;;;;;;;20.30;12.20;;;;;;;18.62;93.89;98566.96;105855;1278;26667;-70
2022/08/29 06:57:07;;;;;;;15.10;11.50;;;;;;;18.74;93.42;98572.60;105829;1275;22557;-70
2022/08/29 06:59:34;;;;;;;13.40;10.70;;;;;;;18.82;92.44;98578.03;105861;1274;24960;-71
2022/08/29 07:02:01;;;;;;;14.00;10.20;;;;;;;18.88;91.74;98582.61;105962;1274;25564;-71
2022/08/29 07:04:29;;;;;;;13.00;10.10;;;;;;;18.95;91.81;98581.52;105895;1274;24251;-71
2022/08/29 07:06:56;;;;;;;12.90;9.10;;;;;;;19.03;91.28;98586.10;105920;1274;24275;-71
2022/08/29 07:09:24;;;;;;;13.40;9.10;;;;;;;19.08;90.30;98586.70;105959;1277;25245;-70
2022/08/29 07:11:52;;;;;;;12.80;9.20;;;;;;;19.15;90.01;98587.52;105868;1274;24255;-71
2022/08/29 07:14:19;;;;;;;10.50;8.70;;;;;;;19.22;89.05;98585.73;105859;1274;25392;-71
2022/08/29 07:17:31;;;;;;;10.60;8.10;;;;;;;19.23;88.41;98588.84;105856;1274;22700;-70
2022/08/29 07:19:59;;;;;;;12.10;8.70;;;;;;;19.20;86.39;98594.03;105868;1274;24408;-71
2022/08/29 07:22:26;;;;;;;10.60;8.10;;;;;;;19.14;85.73;98592.51;105881;1274;25242;-71
2022/08/29 07:24:54;;;;;;;9.30;7.40;;;;;;;19.14;86.79;98593.17;105840;1274;22551;-71
2022/08/29 07:27:21;;;;;;;10.00;8.10;;;;;;;19.20;86.43;98595.47;105926;1274;22547;-71
2022/08/29 07:29:48;;;;;;;10.00;7.60;;;;;;;19.25;86.12;98600.73;105833;1275;25933;-71
2022/08/29 07:32:15;;;;;;;10.80;7.40;;;;;;;19.29;85.92;98603.23;105855;1277;24270;-70
2022/08/29 07:34:42;;;;;;;8.60;7.60;;;;;;;19.32;85.04;98604.93;105943;1277;22567;-71
2022/08/29 07:37:09;;;;;;;8.70;6.60;;;;;;;19.36;84.34;98607.76;105868;1274;22483;-71
2022/08/29 07:39:37;;;;;;;9.80;7.00;;;;;;;19.43;83.13;98607.33;105858;1274;22764;-71
2022/08/29 07:42:04;;;;;;;11.40;7.50;;;;;;;19.52;83.07;98608.73;106008;1274;22542;-71
2022/08/29 07:44:31;;;;;;;8.90;7.10;;;;;;;19.54;82.35;98608.38;105864;1274;22642;-71
2022/08/29 07:47:00;;;;;;;9.80;7.30;;;;;;;19.51;81.70;98608.95;105995;1274;24287;-70
2022/08/29 07:49:29;;;;;;;8.10;6.80;;;;;;;19.48;80.92;98608.84;105895;1274;23065;-71
2022/08/29 07:51:56;;;;;;;7.50;6.60;;;;;;;19.42;80.69;98610.48;105912;1274;22626;-70
2022/08/29 07:54:23;;;;;;;8.10;7.10;;;;;;;19.38;80.24;98613.54;105907;1274;23744;-70
2022/08/29 07:56:51;;;;;;;8.10;7.20;;;;;;;19.36;80.55;98612.18;105894;1274;22617;-70
2022/08/29 07:59:20;;;;;;;8.10;6.50;;;;;;;19.39;80.22;98614.84;105980;1274;22611;-70
2022/08/29 08:01:47;;;;;;;8.10;7.10;;;;;;;19.45;79.91;98615.09;105930;1274;22522;-70
2022/08/29 08:04:42;;;;;;;8.00;5.90;;;;;;;19.65;80.04;98625.20;105868;1274;25295;-71
2022/08/29 08:07:10;;;;;;;10.60;6.50;;;;;;;19.79;79.76;98620.20;105871;1274;22848;-70
2022/08/29 08:09:37;;;;;;;6.30;5.60;;;;;;;19.89;79.29;98625.19;105845;1274;22532;-70
2022/08/29 08:12:06;;;;;;;6.60;5.80;;;;;;;19.92;77.86;98624.86;105800;1274;31900;-70
2022/08/29 08:14:33;;;;;;;;;;;;;;;19.97;76.20;98630.48;105895;1274;24441;-70
2022/08/29 08:16:59;;;;;;;6.90;4.80;;;;;;;20.00;75.78;98631.36;105848;1274;25889;-70
2022/08/29 08:19:26;;;;;;;6.70;5.00;;;;;;;20.11;75.79;98631.34;105848;1277;23501;-70
2022/08/29 08:21:53;;;;;;;7.80;5.00;;;;;;;20.16;75.56;98632.45;105923;1274;25365;-71
2022/08/29 08:24:21;;;;;;;10.00;5.00;;;;;;;20.24;75.54;98631.33;105919;1274;25302;-70
2022/08/29 08:26:48;;;;;;;7.60;4.90;;;;;;;20.36;75.22;98633.30;105848;1274;25247;-71
2022/08/29 08:29:16;;;;;;;6.60;4.50;;;;;;;20.52;75.31;98638.20;105906;1274;22713;-75
2022/08/29 08:31:45;;;;;;;6.70;4.30;;;;;;;20.56;72.37;98634.98;105959;1274;22730;-70
2022/08/29 08:34:15;;;;;;;7.00;4.90;;;;;;;20.56;72.30;98638.83;105905;1274;22539;-70
2022/08/29 08:36:43;;;;;;;8.80;5.20;;;;;;;20.59;72.11;98633.38;105908;1274;23211;-70
2022/08/29 08:39:12;;;;;;;5.80;4.70;;;;;;;20.60;72.03;98639.21;105975;1274;22533;-70
2022/08/29 08:41:49;;;;;;;;;;;;;;;20.65;70.81;98632.89;105949;1274;22694;-70
2022/08/29 08:44:25;;;;;;;3.50;3.20;;;;;;;20.73;70.18;98634.77;105958;1274;24399;-71
2022/08/29 08:46:59;;;;;;;7.20;3.90;;;;;;;20.84;69.34;98635.61;105955;1274;22614;-71
2022/08/29 08:49:53;;;;;;;5.70;3.60;;;;;;;20.95;68.68;98630.84;105907;1274;22567;-70
2022/08/29 08:52:26;;;;;;;8.10;3.90;;;;;;;21.15;69.76;98633.50;105908;1274;25272;-71
2022/08/29 08:55:29;;;;;;;7.50;4.50;;;;;;;21.39;70.10;98633.59;105952;1274;24329;-72
2022/08/29 08:58:44;;;;;;;6.90;4.50;;;;;;;21.46;68.74;98638.27;105411;1280;25254;-70
2022/08/29 09:01:18;;;;;;;7.10;4.10;;;;;;;21.40;68.42;98639.38;104912;1286;24380;-71
2022/08/29 09:04:07;;;;;;;4.20;3.80;;;;;;;21.34;68.25;98637.80;104973;1286;24234;-71
2022/08/29 09:06:59;;;;;;;6.50;4.10;;;;;;;21.29;68.89;98638.86;104892;1286;22563;-71
2022/08/29 09:09:29;;;;;;;5.00;3.50;;;;;;;21.24;67.52;98638.31;104896;1286;22738;-71
2022/08/29 09:12:43;;;;;;;7.20;3.90;;;;;;;21.14;67.31;98645.28;105027;1286;22710;-70
2022/08/29 09:15:19;;;;;;;6.40;3.60;;;;;;;21.20;67.52;98638.51;104285;1293;26602;-71
2022/08/29 09:17:53;;;;;;;6.90;3.60;;;;;;;21.37;66.49;98638.08;104288;1294;22734;-71
2022/08/29 09:20:24;;;;;;;6.30;4.10;;;;;;;21.55;66.80;98639.89;104407;1294;22594;-70
2022/08/29 09:23:02;;;;;;;5.20;3.40;;;;;;;21.60;66.46;98643.41;104400;1294;24223;-71
2022/08/29 09:25:30;;;;;;;11.10;4.30;;;;;;;21.61;65.21;98640.82;104184;1293;22627;-72
2022/08/29 09:27:58;;;;;;;5.20;3.90;;;;;;;21.57;65.61;98641.56;104298;1293;22546;-71
2022/08/29 09:30:32;;;;;;;9.70;3.70;;;;;;;21.64;64.88;98640.98;104178;1293;22645;-70
2022/08/29 09:33:01;;;;;;;6.70;3.40;;;;;;;21.70;65.14;98643.92;104233;1294;22698;-70
2022/08/29 09:35:39;;;;;;;5.60;4.20;;;;;;;21.83;64.87;98643.83;104462;1289;23236;-71
2022/08/29 09:38:17;;;;;;;4.60;3.60;;;;;;;21.99;64.06;98642.33;104915;1283;24421;-71
2022/08/29 09:41:00;;;;;;;5.00;3.30;;;;;;;22.14;64.07;98641.39;105090;1284;22666;-71
2022/08/29 09:43:39;;;;;;;4.70;3.50;;;;;;;22.24;62.25;98639.80;105215;1283;25326;-71
2022/08/29 09:46:09;;;;;;;5.30;3.40;;;;;;;22.31;61.92;98640.60;105181;1283;23494;-70
2022/08/29 09:48:39;;;;;;;6.00;3.40;;;;;;;22.20;60.78;98637.80;105164;1283;23151;-70
2022/08/29 09:51:32;;;;;;;3.70;2.90;;;;;;;22.09;60.86;98633.36;105239;1277;22646;-71
2022/08/29 09:54:16;;;;;;;5.70;3.90;;;;;;;21.98;61.39;98632.16;105756;1275;22543;-70
2022/08/29 09:57:21;;;;;;;5.40;3.80;;;;;;;21.89;61.74;98635.42;105846;1274;24411;-71
2022/08/29 10:00:09;;;;;;;4.80;4.00;;;;;;;22.06;62.18;98627.18;105323;1283;22567;-70
2022/08/29 10:02:43;;;;;;;6.30;4.40;;;;;;;22.07;62.08;98630.14;105272;1283;22547;-70
2022/08/29 10:05:34;;;;;;;4.70;4.20;;;;;;;22.29;62.36;98631.21;105311;1283;24421;-70
2022/08/29 10:08:23;;;;;;;4.80;4.00;;;;;;;22.67;62.57;98633.49;105343;1283;22541;-69
2022/08/29 10:10:54;;;;;;;4.50;4.00;;;;;;;23.00;61.02;98631.40;105257;1281;24327;-70
2022/08/29 10:13:32;;;;;;;4.70;4.30;;;;;;;22.98;59.03;98627.05;105071;1283;22591;-69
2022/08/29 10:16:10;;;;;;;9.10;4.30;;;;;;;22.98;59.25;98628.70;105165;1283;22678;-69
2022/08/29 10:18:43;;;;;;;7.10;4.90;;;;;;;23.00;58.95;98627.39;105324;1283;24294;-71
2022/08/29 10:21:35;;;;;;;5.00;4.50;;;;;;;23.17;59.71;98626.95;105316;1283;22632;-70
2022/08/29 10:24:21;;;;;;;5.10;3.90;;;;;;;23.42;58.31;98623.19;105252;1281;22710;-70
2022/08/29 10:27:14;;;;;;;5.40;4.20;;;;;;;23.43;57.34;98622.38;105364;1281;24334;-70
2022/08/29 10:30:08;;;;;;;6.80;3.80;;;;;;;23.40;57.14;98622.37;105556;1281;25320;-70
2022/08/29 10:32:41;;;;;;;5.10;3.80;;;;;;;23.39;57.17;98622.29;105296;1283;24279;-70
2022/08/29 10:35:29;;;;;;;4.80;4.20;;;;;;;23.33;56.63;98617.92;105306;1283;30568;-69
2022/08/29 10:38:13;;;;;;;6.70;5.20;;;;;;;23.17;56.92;98625.11;105978;1274;26423;-71
2022/08/29 10:40:48;;;;;;;7.70;5.40;;;;;;;23.12;58.33;98622.41;106050;1274;22623;-71
2022/08/29 10:43:30;;;;;;;7.40;5.80;;;;;;;23.37;56.96;98619.80;106063;1274;24307;-71
2022/08/29 10:46:42;;;;;;;6.80;6.10;;;;;;;23.65;57.54;98620.81;105739;1274;22582;-71
2022/08/29 10:49:24;;;;;;;6.10;5.40;;;;;;;24.08;57.50;98621.46;105400;1281;24083;-70
2022/08/29 10:52:12;;;;;;;9.30;5.90;;;;;;;24.25;56.38;98619.82;105435;1281;22790;-71
2022/08/29 10:54:57;;;;;;;;;;;;;;;24.33;56.21;98622.09;105545;1280;25421;-71
2022/08/29 10:57:44;;;;;;;7.00;6.10;;;;;;;24.39;54.94;98626.16;105435;1280;25258;-69
2022/08/29 11:00:21;;;;;;;7.40;6.60;;;;;;;24.29;54.86;98624.85;105419;1280;23873;-70
2022/08/29 11:03:02;;;;;;;9.60;7.10;;;;;;;24.24;55.32;98628.98;105477;1280;22694;-69
2022/08/29 11:05:37;;;;;;;10.50;7.70;;;;;;;23.97;55.21;98630.45;105263;1283;24229;-71
2022/08/29 11:08:13;;;;;;;8.80;7.40;;;;;;;23.63;56.02;98631.37;105323;1283;23335;-71
2022/08/29 11:10:44;;;;;;;9.70;8.10;;;;;;;23.40;57.17;98632.61;105352;1283;22706;-70
2022/08/29 11:13:30;;;;;;;7.10;6.40;;;;;;;23.35;57.61;98635.21;105297;1283;25525;-70
2022/08/29 11:16:08;;;;;;;6.90;6.20;;;;;;;23.41;56.75;98627.80;105322;1283;30352;-71
2022/08/29 11:18:45;;;;;;;9.30;5.90;;;;;;;23.36;56.19;98629.79;105280;1283;22596;-71
2022/08/29 11:21:26;;;;;;;8.10;5.80;;;;;;;23.45;55.77;98628.16;105336;1283;24425;-70
2022/08/29 11:23:54;;;;;;;7.50;5.20;;;;;;;23.62;55.28;98626.23;105302;1280;25504;-71
2022/08/29 11:26:21;;;;;;;;;;;;;;;23.95;56.71;98623.91;105887;1274;31802;-69
2022/08/29 11:29:06;;;;;;;6.00;4.40;;;;;;;24.25;55.23;98622.04;105872;1274;22551;-70
2022/08/29 11:31:43;;;;;;;5.70;4.10;;;;;;;24.63;54.19;98613.93;105898;1274;23199;-71
2022/08/29 11:34:39;;;;;;;6.30;4.50;;;;;;;24.83;53.14;98606.02;105969;1274;22562;-71
2022/08/29 11:37:38;;;;;;;5.70;4.90;;;;;;;24.88;53.53;98606.45;105766;1274;22704;-71
2022/08/29 11:40:08;;;;;;;5.50;4.70;;;;;;;24.85;52.61;98612.30;105889;1274;24357;-70
2022/08/29 11:42:39;;;;;;;4.50;4.10;;;;;;;24.74;53.34;98613.70;105958;1274;24218;-71